Terminal Aerodrome Forecast
Issued by NWS Grand Rapids, MI

Home | Current Version | Previous Version | Text Only | Print | Product List | Glossary On
Versions: 1 2 3 4 5 6 7 8 9 10 11 12 13 14 15 16
000
FTUS43 KGRR 260806 AAB
TAFGRR
TAF AMD
KGRR 260806Z 2608/2706 25008KT P6SM -RA BKN080
     FM261200 22006KT P6SM VCSH BKN070 OVC250
     FM261500 24008KT P6SM BKN250
     FM270000 26004KT P6SM BKN250=

USA.gov is the U.S. government's official web portal to all federal, state and local government web resources and services.